sensor_id;sensor_type;location;lat;lon;timestamp;temperature;humidity
37408;DHT22;24866;50.248;8.252;2023-12-07T00:01:03;2.60;99.90
37408;DHT22;24866;50.248;8.252;2023-12-07T00:03:33;2.60;99.90
37408;DHT22;24866;50.248;8.252;2023-12-07T00:06:05;2.60;99.90
37408;DHT22;24866;50.248;8.252;2023-12-07T00:08:34;2.60;99.90
37408;DHT22;24866;50.248;8.252;2023-12-07T00:11:04;2.50;99.90
37408;DHT22;24866;50.248;8.252;2023-12-07T00:13:34;2.40;99.90
37408;DHT22;24866;50.248;8.252;2023-12-07T00:16:05;2.50;99.90
37408;DHT22;24866;50.248;8.252;2023-12-07T00:18:35;2.60;99.90
37408;DHT22;24866;50.248;8.252;2023-12-07T00:21:07;2.60;99.90
37408;DHT22;24866;50.248;8.252;2023-12-07T00:23:37;2.50;99.90
37408;DHT22;24866;50.248;8.252;2023-12-07T00:26:07;2.40;99.90
37408;DHT22;24866;50.248;8.252;2023-12-07T00:28:39;2.60;99.90
37408;DHT22;24866;50.248;8.252;2023-12-07T00:31:09;2.50;99.90
37408;DHT22;24866;50.248;8.252;2023-12-07T00:33:40;2.60;99.90
37408;DHT22;24866;50.248;8.252;2023-12-07T00:36:11;2.60;99.90
37408;DHT22;24866;50.248;8.252;2023-12-07T00:38:42;2.30;99.90
37408;DHT22;24866;50.248;8.252;2023-12-07T00:41:12;2.30;99.90
37408;DHT22;24866;50.248;8.252;2023-12-07T00:43:42;2.30;99.90
37408;DHT22;24866;50.248;8.252;2023-12-07T00:46:12;2.40;99.90
37408;DHT22;24866;50.248;8.252;2023-12-07T00:48:42;2.50;99.90
37408;DHT22;24866;50.248;8.252;2023-12-07T00:51:13;2.60;99.90
37408;DHT22;24866;50.248;8.252;2023-12-07T00:53:43;2.60;99.90
37408;DHT22;24866;50.248;8.252;2023-12-07T00:56:13;2.70;99.90
37408;DHT22;24866;50.248;8.252;2023-12-07T00:58:43;2.80;99.90
37408;DHT22;24866;50.248;8.252;2023-12-07T01:01:13;2.70;99.90
37408;DHT22;24866;50.248;8.252;2023-12-07T01:03:43;2.40;99.90
37408;DHT22;24866;50.248;8.252;2023-12-07T01:06:14;2.30;99.90
37408;DHT22;24866;50.248;8.252;2023-12-07T01:08:45;2.50;99.90
37408;DHT22;24866;50.248;8.252;2023-12-07T01:11:15;2.30;99.90
37408;DHT22;24866;50.248;8.252;2023-12-07T01:13:45;2.20;99.90
37408;DHT22;24866;50.248;8.252;2023-12-07T01:16:15;2.20;99.90
37408;DHT22;24866;50.248;8.252;2023-12-07T01:18:45;2.20;99.90
37408;DHT22;24866;50.248;8.252;2023-12-07T01:21:16;2.30;99.90
37408;DHT22;24866;50.248;8.252;2023-12-07T01:23:46;2.20;99.90
37408;DHT22;24866;50.248;8.252;2023-12-07T01:26:16;2.30;99.90
37408;DHT22;24866;50.248;8.252;2023-12-07T01:28:46;2.30;99.90
37408;DHT22;24866;50.248;8.252;2023-12-07T01:31:16;2.40;99.90
37408;DHT22;24866;50.248;8.252;2023-12-07T01:33:46;2.50;99.90
37408;DHT22;24866;50.248;8.252;2023-12-07T01:36:18;2.70;99.90
37408;DHT22;24866;50.248;8.252;2023-12-07T01:38:48;2.80;99.90
37408;DHT22;24866;50.248;8.252;2023-12-07T01:41:18;2.80;99.90
37408;DHT22;24866;50.248;8.252;2023-12-07T01:43:48;2.90;99.90
37408;DHT22;24866;50.248;8.252;2023-12-07T01:46:18;2.20;99.90
37408;DHT22;24866;50.248;8.252;2023-12-07T01:48:48;2.10;99.90
37408;DHT22;24866;50.248;8.252;2023-12-07T01:51:20;2.20;99.90
37408;DHT22;24866;50.248;8.252;2023-12-07T01:53:51;2.40;99.90
37408;DHT22;24866;50.248;8.252;2023-12-07T01:56:21;2.40;99.90
37408;DHT22;24866;50.248;8.252;2023-12-07T01:58:51;2.30;99.90
37408;DHT22;24866;50.248;8.252;2023-12-07T02:01:21;1.90;99.90
37408;DHT22;24866;50.248;8.252;2023-12-07T02:03:51;1.60;99.90
37408;DHT22;24866;50.248;8.252;2023-12-07T02:06:22;1.70;99.90
37408;DHT22;24866;50.248;8.252;2023-12-07T02:08:52;2.00;99.90
37408;DHT22;24866;50.248;8.252;2023-12-07T02:11:22;2.20;99.90
37408;DHT22;24866;50.248;8.252;2023-12-07T02:13:52;2.30;99.90
37408;DHT22;24866;50.248;8.252;2023-12-07T02:16:27;1.80;99.90
37408;DHT22;24866;50.248;8.252;2023-12-07T02:19:06;2.00;99.90
37408;DHT22;24866;50.248;8.252;2023-12-07T02:21:48;1.60;99.90
37408;DHT22;24866;50.248;8.252;2023-12-07T02:24:22;1.70;99.90
37408;DHT22;24866;50.248;8.252;2023-12-07T02:26:53;2.00;99.90
37408;DHT22;24866;50.248;8.252;2023-12-07T02:29:23;2.30;99.90
37408;DHT22;24866;50.248;8.252;2023-12-07T02:31:53;2.20;99.90
37408;DHT22;24866;50.248;8.252;2023-12-07T02:34:23;2.20;99.90
37408;DHT22;24866;50.248;8.252;2023-12-07T02:36:53;2.20;99.90
37408;DHT22;24866;50.248;8.252;2023-12-07T02:39:26;2.20;99.90
37408;DHT22;24866;50.248;8.252;2023-12-07T02:41:58;2.10;99.90
37408;DHT22;24866;50.248;8.252;2023-12-07T02:44:28;1.90;99.90
37408;DHT22;24866;50.248;8.252;2023-12-07T02:46:58;1.60;99.90
37408;DHT22;24866;50.248;8.252;2023-12-07T02:49:28;1.40;99.90
37408;DHT22;24866;50.248;8.252;2023-12-07T02:51:58;1.30;99.90
37408;DHT22;24866;50.248;8.252;2023-12-07T02:54:28;1.30;99.90
37408;DHT22;24866;50.248;8.252;2023-12-07T02:57:00;1.80;99.90
37408;DHT22;24866;50.248;8.252;2023-12-07T02:59:30;1.80;99.90
37408;DHT22;24866;50.248;8.252;2023-12-07T03:02:00;1.90;99.90
37408;DHT22;24866;50.248;8.252;2023-12-07T03:04:29;1.90;99.90
37408;DHT22;24866;50.248;8.252;2023-12-07T03:06:59;2.00;99.90
37408;DHT22;24866;50.248;8.252;2023-12-07T03:09:29;1.20;99.90
37408;DHT22;24866;50.248;8.252;2023-12-07T03:12:01;1.50;99.90
37408;DHT22;24866;50.248;8.252;2023-12-07T03:14:30;1.60;99.90
37408;DHT22;24866;50.248;8.252;2023-12-07T03:17:01;1.70;99.90
37408;DHT22;24866;50.248;8.252;2023-12-07T03:19:31;1.80;99.90
37408;DHT22;24866;50.248;8.252;2023-12-07T03:22:00;1.60;99.90
37408;DHT22;24866;50.248;8.252;2023-12-07T03:24:30;1.90;99.90
37408;DHT22;24866;50.248;8.252;2023-12-07T03:27:02;1.50;99.90
37408;DHT22;24866;50.248;8.252;2023-12-07T03:29:32;1.60;99.90
37408;DHT22;24866;50.248;8.252;2023-12-07T03:32:03;1.70;99.90
37408;DHT22;24866;50.248;8.252;2023-12-07T03:34:32;1.90;99.90
37408;DHT22;24866;50.248;8.252;2023-12-07T03:37:02;2.00;99.90
37408;DHT22;24866;50.248;8.252;2023-12-07T03:39:33;2.00;99.90
37408;DHT22;24866;50.248;8.252;2023-12-07T03:42:04;1.80;99.90
37408;DHT22;24866;50.248;8.252;2023-12-07T03:44:34;1.60;99.90
37408;DHT22;24866;50.248;8.252;2023-12-07T03:47:04;1.60;99.90
37408;DHT22;24866;50.248;8.252;2023-12-07T03:49:34;1.30;99.90
37408;DHT22;24866;50.248;8.252;2023-12-07T03:52:05;1.30;99.90
37408;DHT22;24866;50.248;8.252;2023-12-07T03:54:35;1.60;99.90
37408;DHT22;24866;50.248;8.252;2023-12-07T03:57:07;1.90;99.90
37408;DHT22;24866;50.248;8.252;2023-12-07T03:59:37;2.00;99.90
37408;DHT22;24866;50.248;8.252;2023-12-07T04:02:07;2.00;99.90
37408;DHT22;24866;50.248;8.252;2023-12-07T04:04:37;2.00;99.90
37408;DHT22;24866;50.248;8.252;2023-12-07T04:07:08;2.10;99.90
37408;DHT22;24866;50.248;8.252;2023-12-07T04:09:38;1.80;99.90
37408;DHT22;24866;50.248;8.252;2023-12-07T04:12:09;1.60;99.90
37408;DHT22;24866;50.248;8.252;2023-12-07T04:14:39;1.60;99.90
37408;DHT22;24866;50.248;8.252;2023-12-07T04:17:09;1.60;99.90
37408;DHT22;24866;50.248;8.252;2023-12-07T04:19:39;1.50;99.90
37408;DHT22;24866;50.248;8.252;2023-12-07T04:22:09;1.60;99.90
37408;DHT22;24866;50.248;8.252;2023-12-07T04:24:39;1.70;99.90
37408;DHT22;24866;50.248;8.252;2023-12-07T04:27:10;1.80;99.90
37408;DHT22;24866;50.248;8.252;2023-12-07T04:29:40;1.60;99.90
37408;DHT22;24866;50.248;8.252;2023-12-07T04:32:10;1.70;99.90
37408;DHT22;24866;50.248;8.252;2023-12-07T04:34:40;1.80;99.90
37408;DHT22;24866;50.248;8.252;2023-12-07T04:37:10;1.80;99.90
37408;DHT22;24866;50.248;8.252;2023-12-07T04:39:40;1.70;99.90
37408;DHT22;24866;50.248;8.252;2023-12-07T04:42:11;1.70;99.90
37408;DHT22;24866;50.248;8.252;2023-12-07T04:44:41;1.60;99.90
37408;DHT22;24866;50.248;8.252;2023-12-07T04:47:11;1.70;99.90
37408;DHT22;24866;50.248;8.252;2023-12-07T04:49:41;1.90;99.90
37408;DHT22;24866;50.248;8.252;2023-12-07T04:52:11;2.00;99.90
37408;DHT22;24866;50.248;8.252;2023-12-07T04:54:41;1.70;99.90
37408;DHT22;24866;50.248;8.252;2023-12-07T04:57:12;1.90;99.90
37408;DHT22;24866;50.248;8.252;2023-12-07T04:59:42;2.00;99.90
37408;DHT22;24866;50.248;8.252;2023-12-07T05:02:15;1.70;99.90
37408;DHT22;24866;50.248;8.252;2023-12-07T05:04:45;1.90;99.90
37408;DHT22;24866;50.248;8.252;2023-12-07T05:07:15;1.90;99.90
37408;DHT22;24866;50.248;8.252;2023-12-07T05:09:45;2.00;99.90
37408;DHT22;24866;50.248;8.252;2023-12-07T05:12:17;2.10;99.90
37408;DHT22;24866;50.248;8.252;2023-12-07T05:14:47;2.30;99.90
37408;DHT22;24866;50.248;8.252;2023-12-07T05:17:17;2.00;99.90
37408;DHT22;24866;50.248;8.252;2023-12-07T05:19:47;1.80;99.90
37408;DHT22;24866;50.248;8.252;2023-12-07T05:22:16;1.70;99.90
37408;DHT22;24866;50.248;8.252;2023-12-07T05:24:46;1.40;99.90
37408;DHT22;24866;50.248;8.252;2023-12-07T05:27:18;1.60;99.90
37408;DHT22;24866;50.248;8.252;2023-12-07T05:29:48;1.70;99.90
37408;DHT22;24866;50.248;8.252;2023-12-07T05:32:18;1.50;99.90
37408;DHT22;24866;50.248;8.252;2023-12-07T05:34:48;1.60;99.90
37408;DHT22;24866;50.248;8.252;2023-12-07T05:37:19;1.80;99.90
37408;DHT22;24866;50.248;8.252;2023-12-07T05:39:49;1.70;99.90
37408;DHT22;24866;50.248;8.252;2023-12-07T05:42:20;1.10;99.90
37408;DHT22;24866;50.248;8.252;2023-12-07T05:44:51;1.00;99.90
37408;DHT22;24866;50.248;8.252;2023-12-07T05:47:21;1.20;99.90
37408;DHT22;24866;50.248;8.252;2023-12-07T05:49:51;1.30;99.90
37408;DHT22;24866;50.248;8.252;2023-12-07T05:52:21;1.30;99.90
37408;DHT22;24866;50.248;8.252;2023-12-07T05:54:51;1.50;99.90
37408;DHT22;24866;50.248;8.252;2023-12-07T05:57:25;1.40;99.90
37408;DHT22;24866;50.248;8.252;2023-12-07T05:59:55;1.00;99.90
37408;DHT22;24866;50.248;8.252;2023-12-07T06:02:25;0.40;99.90
37408;DHT22;24866;50.248;8.252;2023-12-07T06:04:55;0.70;99.90
37408;DHT22;24866;50.248;8.252;2023-12-07T06:07:25;1.10;99.90
37408;DHT22;24866;50.248;8.252;2023-12-07T06:09:55;1.40;99.90
37408;DHT22;24866;50.248;8.252;2023-12-07T06:12:26;1.40;99.90
37408;DHT22;24866;50.248;8.252;2023-12-07T06:14:56;1.50;99.90
37408;DHT22;24866;50.248;8.252;2023-12-07T06:17:26;1.40;99.90
37408;DHT22;24866;50.248;8.252;2023-12-07T06:19:56;0.80;99.90
37408;DHT22;24866;50.248;8.252;2023-12-07T06:22:26;1.00;99.90
37408;DHT22;24866;50.248;8.252;2023-12-07T06:24:58;0.70;99.90
37408;DHT22;24866;50.248;8.252;2023-12-07T06:27:30;0.50;99.90
37408;DHT22;24866;50.248;8.252;2023-12-07T06:30:03;0.60;99.90
37408;DHT22;24866;50.248;8.252;2023-12-07T06:32:34;0.40;99.90
37408;DHT22;24866;50.248;8.252;2023-12-07T06:35:05;0.50;99.90
37408;DHT22;24866;50.248;8.252;2023-12-07T06:37:35;0.70;99.90
37408;DHT22;24866;50.248;8.252;2023-12-07T06:40:07;0.30;99.90
37408;DHT22;24866;50.248;8.252;2023-12-07T06:42:39;0.10;99.90
37408;DHT22;24866;50.248;8.252;2023-12-07T06:45:09;0.20;99.90
37408;DHT22;24866;50.248;8.252;2023-12-07T06:47:42;0.40;99.90
37408;DHT22;24866;50.248;8.252;2023-12-07T06:50:12;0.40;99.90
37408;DHT22;24866;50.248;8.252;2023-12-07T06:52:42;0.10;99.90
37408;DHT22;24866;50.248;8.252;2023-12-07T06:55:13;0.20;99.90
37408;DHT22;24866;50.248;8.252;2023-12-07T06:57:45;0.40;99.90
37408;DHT22;24866;50.248;8.252;2023-12-07T07:00:16;0.40;99.90
37408;DHT22;24866;50.248;8.252;2023-12-07T07:02:47;0.20;99.90
37408;DHT22;24866;50.248;8.252;2023-12-07T07:05:16;0.30;99.90
37408;DHT22;24866;50.248;8.252;2023-12-07T07:07:46;0.40;99.90
37408;DHT22;24866;50.248;8.252;2023-12-07T07:10:16;0.60;99.90
37408;DHT22;24866;50.248;8.252;2023-12-07T07:12:48;0.90;99.90
37408;DHT22;24866;50.248;8.252;2023-12-07T07:15:18;0.70;99.90
37408;DHT22;24866;50.248;8.252;2023-12-07T07:17:48;0.60;99.90
37408;DHT22;24866;50.248;8.252;2023-12-07T07:20:18;0.60;99.90
37408;DHT22;24866;50.248;8.252;2023-12-07T07:22:49;0.60;99.90
37408;DHT22;24866;50.248;8.252;2023-12-07T07:25:19;0.50;99.90
37408;DHT22;24866;50.248;8.252;2023-12-07T07:27:50;0.40;99.90
37408;DHT22;24866;50.248;8.252;2023-12-07T07:30:20;0.30;99.90
37408;DHT22;24866;50.248;8.252;2023-12-07T07:32:50;0.30;99.90
37408;DHT22;24866;50.248;8.252;2023-12-07T07:35:20;0.20;99.90
37408;DHT22;24866;50.248;8.252;2023-12-07T07:37:50;0.30;99.90
37408;DHT22;24866;50.248;8.252;2023-12-07T07:40:20;0.40;99.90
37408;DHT22;24866;50.248;8.252;2023-12-07T07:42:52;0.30;99.90
37408;DHT22;24866;50.248;8.252;2023-12-07T07:45:22;0.20;99.90
37408;DHT22;24866;50.248;8.252;2023-12-07T07:47:53;0.10;99.90
37408;DHT22;24866;50.248;8.252;2023-12-07T07:50:23;0.30;99.90
37408;DHT22;24866;50.248;8.252;2023-12-07T07:52:54;0.30;99.90
37408;DHT22;24866;50.248;8.252;2023-12-07T07:55:24;0.40;99.90
37408;DHT22;24866;50.248;8.252;2023-12-07T07:57:56;0.40;99.90
37408;DHT22;24866;50.248;8.252;2023-12-07T08:00:26;0.50;99.90
37408;DHT22;24866;50.248;8.252;2023-12-07T08:02:56;0.60;99.90
37408;DHT22;24866;50.248;8.252;2023-12-07T08:05:27;0.50;99.90
37408;DHT22;24866;50.248;8.252;2023-12-07T08:07:57;0.40;99.90
37408;DHT22;24866;50.248;8.252;2023-12-07T08:10:26;0.30;99.90
37408;DHT22;24866;50.248;8.252;2023-12-07T08:12:58;0.40;99.90
37408;DHT22;24866;50.248;8.252;2023-12-07T08:15:28;0.40;99.90
37408;DHT22;24866;50.248;8.252;2023-12-07T08:17:58;0.50;99.90
37408;DHT22;24866;50.248;8.252;2023-12-07T08:20:28;0.60;99.90
37408;DHT22;24866;50.248;8.252;2023-12-07T08:22:58;0.70;99.90
37408;DHT22;24866;50.248;8.252;2023-12-07T08:25:28;0.90;99.90
37408;DHT22;24866;50.248;8.252;2023-12-07T08:28:02;1.00;99.90
37408;DHT22;24866;50.248;8.252;2023-12-07T08:30:32;1.20;99.90
37408;DHT22;24866;50.248;8.252;2023-12-07T08:33:02;1.50;99.90
37408;DHT22;24866;50.248;8.252;2023-12-07T08:35:32;1.50;99.90
37408;DHT22;24866;50.248;8.252;2023-12-07T08:38:02;1.50;99.90
37408;DHT22;24866;50.248;8.252;2023-12-07T08:40:33;1.40;99.90
37408;DHT22;24866;50.248;8.252;2023-12-07T08:43:05;1.10;99.90
37408;DHT22;24866;50.248;8.252;2023-12-07T08:45:34;1.30;99.90
37408;DHT22;24866;50.248;8.252;2023-12-07T08:48:06;1.40;99.90
37408;DHT22;24866;50.248;8.252;2023-12-07T08:50:36;1.40;99.90
37408;DHT22;24866;50.248;8.252;2023-12-07T08:53:06;1.60;99.90
37408;DHT22;24866;50.248;8.252;2023-12-07T08:55:36;1.50;99.90
37408;DHT22;24866;50.248;8.252;2023-12-07T08:58:08;1.10;99.90
37408;DHT22;24866;50.248;8.252;2023-12-07T09:00:39;0.80;99.90
37408;DHT22;24866;50.248;8.252;2023-12-07T09:03:08;0.90;99.90
37408;DHT22;24866;50.248;8.252;2023-12-07T09:05:38;0.70;99.90
37408;DHT22;24866;50.248;8.252;2023-12-07T09:08:09;0.70;99.90
37408;DHT22;24866;50.248;8.252;2023-12-07T09:10:39;0.80;99.90
37408;DHT22;24866;50.248;8.252;2023-12-07T09:13:12;0.90;99.90
37408;DHT22;24866;50.248;8.252;2023-12-07T09:15:42;0.80;99.90
37408;DHT22;24866;50.248;8.252;2023-12-07T09:18:13;0.80;99.90
37408;DHT22;24866;50.248;8.252;2023-12-07T09:20:43;0.70;99.90
37408;DHT22;24866;50.248;8.252;2023-12-07T09:23:14;0.70;99.90
37408;DHT22;24866;50.248;8.252;2023-12-07T09:25:46;0.70;99.90
37408;DHT22;24866;50.248;8.252;2023-12-07T09:28:17;0.60;99.90
37408;DHT22;24866;50.248;8.252;2023-12-07T09:30:48;0.70;99.90
37408;DHT22;24866;50.248;8.252;2023-12-07T09:33:18;0.80;99.90
37408;DHT22;24866;50.248;8.252;2023-12-07T09:35:48;0.80;99.90
37408;DHT22;24866;50.248;8.252;2023-12-07T09:38:18;0.70;99.90
37408;DHT22;24866;50.248;8.252;2023-12-07T09:40:52;0.70;99.90
37408;DHT22;24866;50.248;8.252;2023-12-07T09:43:24;0.60;99.90
37408;DHT22;24866;50.248;8.252;2023-12-07T09:45:54;0.60;99.90
37408;DHT22;24866;50.248;8.252;2023-12-07T09:48:25;0.60;99.90
37408;DHT22;24866;50.248;8.252;2023-12-07T09:50:57;0.80;99.90
37408;DHT22;24866;50.248;8.252;2023-12-07T09:53:29;0.90;99.90
37408;DHT22;24866;50.248;8.252;2023-12-07T09:56:03;1.00;99.90
37408;DHT22;24866;50.248;8.252;2023-12-07T09:58:35;1.00;99.90
37408;DHT22;24866;50.248;8.252;2023-12-07T10:01:07;1.00;99.90
37408;DHT22;24866;50.248;8.252;2023-12-07T10:03:37;1.00;99.90
37408;DHT22;24866;50.248;8.252;2023-12-07T10:06:07;1.20;99.90
37408;DHT22;24866;50.248;8.252;2023-12-07T10:08:37;1.30;99.90
37408;DHT22;24866;50.248;8.252;2023-12-07T10:11:09;1.20;99.90
37408;DHT22;24866;50.248;8.252;2023-12-07T10:13:42;1.50;99.90
37408;DHT22;24866;50.248;8.252;2023-12-07T10:16:14;1.40;99.90
37408;DHT22;24866;50.248;8.252;2023-12-07T10:18:45;1.60;99.90
37408;DHT22;24866;50.248;8.252;2023-12-07T10:21:15;1.70;99.90
37408;DHT22;24866;50.248;8.252;2023-12-07T10:23:45;1.50;99.90
37408;DHT22;24866;50.248;8.252;2023-12-07T10:26:17;1.70;99.90
37408;DHT22;24866;50.248;8.252;2023-12-07T10:28:50;2.10;99.90
37408;DHT22;24866;50.248;8.252;2023-12-07T10:31:23;2.10;99.90
37408;DHT22;24866;50.248;8.252;2023-12-07T10:33:53;2.00;99.90
37408;DHT22;24866;50.248;8.252;2023-12-07T10:36:23;2.10;99.90
37408;DHT22;24866;50.248;8.252;2023-12-07T10:38:53;2.20;99.90
37408;DHT22;24866;50.248;8.252;2023-12-07T10:41:24;2.60;99.90
37408;DHT22;24866;50.248;8.252;2023-12-07T10:44:00;2.70;99.90
37408;DHT22;24866;50.248;8.252;2023-12-07T10:46:33;2.90;99.90
37408;DHT22;24866;50.248;8.252;2023-12-07T10:49:04;2.90;99.90
37408;DHT22;24866;50.248;8.252;2023-12-07T10:51:45;2.90;99.90
37408;DHT22;24866;50.248;8.252;2023-12-07T10:54:18;3.20;99.90
37408;DHT22;24866;50.248;8.252;2023-12-07T10:56:50;3.60;99.90
37408;DHT22;24866;50.248;8.252;2023-12-07T10:59:22;3.40;99.90
37408;DHT22;24866;50.248;8.252;2023-12-07T11:01:53;3.90;99.90
37408;DHT22;24866;50.248;8.252;2023-12-07T11:04:25;3.90;99.90
37408;DHT22;24866;50.248;8.252;2023-12-07T11:06:58;3.70;99.90
37408;DHT22;24866;50.248;8.252;2023-12-07T11:09:34;4.00;99.90
37408;DHT22;24866;50.248;8.252;2023-12-07T11:12:09;4.00;99.90
37408;DHT22;24866;50.248;8.252;2023-12-07T11:14:43;4.00;99.90
37408;DHT22;24866;50.248;8.252;2023-12-07T11:17:15;4.10;99.90
37408;DHT22;24866;50.248;8.252;2023-12-07T11:19:46;4.20;99.90
37408;DHT22;24866;50.248;8.252;2023-12-07T11:22:16;4.30;99.90
37408;DHT22;24866;50.248;8.252;2023-12-07T11:24:55;4.20;99.90
37408;DHT22;24866;50.248;8.252;2023-12-07T11:27:29;4.40;99.90
37408;DHT22;24866;50.248;8.252;2023-12-07T11:30:02;4.50;99.90
37408;DHT22;24866;50.248;8.252;2023-12-07T11:32:32;4.60;99.90
37408;DHT22;24866;50.248;8.252;2023-12-07T11:35:04;4.50;99.90
37408;DHT22;24866;50.248;8.252;2023-12-07T11:38:01;4.20;99.90
37408;DHT22;24866;50.248;8.252;2023-12-07T11:40:34;3.90;99.90
37408;DHT22;24866;50.248;8.252;2023-12-07T11:43:04;4.00;99.90
37408;DHT22;24866;50.248;8.252;2023-12-07T11:45:48;4.20;99.90
37408;DHT22;24866;50.248;8.252;2023-12-07T11:48:18;4.30;99.90
37408;DHT22;24866;50.248;8.252;2023-12-07T11:50:57;4.20;99.90
37408;DHT22;24866;50.248;8.252;2023-12-07T11:53:31;3.80;99.90
37408;DHT22;24866;50.248;8.252;2023-12-07T11:56:02;3.40;99.90
37408;DHT22;24866;50.248;8.252;2023-12-07T11:58:34;3.30;99.90
37408;DHT22;24866;50.248;8.252;2023-12-07T12:01:06;3.00;99.90
37408;DHT22;24866;50.248;8.252;2023-12-07T12:03:37;3.00;99.90
37408;DHT22;24866;50.248;8.252;2023-12-07T12:06:07;3.00;99.90
37408;DHT22;24866;50.248;8.252;2023-12-07T12:08:40;2.90;99.90
37408;DHT22;24866;50.248;8.252;2023-12-07T12:11:11;2.80;99.90
37408;DHT22;24866;50.248;8.252;2023-12-07T12:13:41;2.40;99.90
37408;DHT22;24866;50.248;8.252;2023-12-07T12:16:13;2.40;99.90
37408;DHT22;24866;50.248;8.252;2023-12-07T12:18:43;2.40;99.90
37408;DHT22;24866;50.248;8.252;2023-12-07T12:21:13;2.10;99.90
37408;DHT22;24866;50.248;8.252;2023-12-07T12:23:43;1.90;99.90
37408;DHT22;24866;50.248;8.252;2023-12-07T12:26:14;1.70;99.90
37408;DHT22;24866;50.248;8.252;2023-12-07T12:28:44;1.70;99.90
37408;DHT22;24866;50.248;8.252;2023-12-07T12:31:16;1.60;99.90
37408;DHT22;24866;50.248;8.252;2023-12-07T12:33:47;1.60;99.90
37408;DHT22;24866;50.248;8.252;2023-12-07T12:36:19;1.80;99.90
37408;DHT22;24866;50.248;8.252;2023-12-07T12:38:51;1.90;99.90
37408;DHT22;24866;50.248;8.252;2023-12-07T12:41:22;1.80;99.90
37408;DHT22;24866;50.248;8.252;2023-12-07T12:43:53;1.80;99.90
37408;DHT22;24866;50.248;8.252;2023-12-07T12:46:24;1.80;99.90
37408;DHT22;24866;50.248;8.252;2023-12-07T12:48:55;1.60;99.90
37408;DHT22;24866;50.248;8.252;2023-12-07T12:51:28;1.60;99.90
37408;DHT22;24866;50.248;8.252;2023-12-07T12:54:00;1.40;99.90
37408;DHT22;24866;50.248;8.252;2023-12-07T12:56:30;1.40;99.90
37408;DHT22;24866;50.248;8.252;2023-12-07T12:59:01;1.40;99.90
37408;DHT22;24866;50.248;8.252;2023-12-07T13:01:32;1.10;99.90
37408;DHT22;24866;50.248;8.252;2023-12-07T13:04:02;1.10;99.90
37408;DHT22;24866;50.248;8.252;2023-12-07T13:06:32;1.10;99.90
37408;DHT22;24866;50.248;8.252;2023-12-07T13:09:03;1.00;99.90
37408;DHT22;24866;50.248;8.252;2023-12-07T13:11:33;1.10;99.90
37408;DHT22;24866;50.248;8.252;2023-12-07T13:14:03;1.20;99.90
37408;DHT22;24866;50.248;8.252;2023-12-07T13:16:37;1.20;99.90
37408;DHT22;24866;50.248;8.252;2023-12-07T13:19:07;1.10;99.90
37408;DHT22;24866;50.248;8.252;2023-12-07T13:21:37;1.00;99.90
37408;DHT22;24866;50.248;8.252;2023-12-07T13:24:07;1.10;99.90
37408;DHT22;24866;50.248;8.252;2023-12-07T13:26:41;1.10;99.90
37408;DHT22;24866;50.248;8.252;2023-12-07T13:29:11;1.00;99.90
37408;DHT22;24866;50.248;8.252;2023-12-07T13:31:43;0.90;99.90
37408;DHT22;24866;50.248;8.252;2023-12-07T13:34:14;0.80;99.90
37408;DHT22;24866;50.248;8.252;2023-12-07T13:36:44;0.90;99.90
37408;DHT22;24866;50.248;8.252;2023-12-07T13:39:14;0.80;99.90
37408;DHT22;24866;50.248;8.252;2023-12-07T13:41:44;0.80;99.90
37408;DHT22;24866;50.248;8.252;2023-12-07T13:44:14;0.80;99.90
37408;DHT22;24866;50.248;8.252;2023-12-07T13:46:47;0.70;99.90
37408;DHT22;24866;50.248;8.252;2023-12-07T13:49:17;0.70;99.90
37408;DHT22;24866;50.248;8.252;2023-12-07T13:51:47;0.70;99.90
37408;DHT22;24866;50.248;8.252;2023-12-07T13:54:16;0.70;99.90
37408;DHT22;24866;50.248;8.252;2023-12-07T13:56:46;0.70;99.90
37408;DHT22;24866;50.248;8.252;2023-12-07T13:59:16;0.60;99.90
37408;DHT22;24866;50.248;8.252;2023-12-07T14:01:48;0.50;99.90
37408;DHT22;24866;50.248;8.252;2023-12-07T14:04:18;0.60;99.90
37408;DHT22;24866;50.248;8.252;2023-12-07T14:06:48;0.50;99.90
37408;DHT22;24866;50.248;8.252;2023-12-07T14:09:18;0.60;99.90
37408;DHT22;24866;50.248;8.252;2023-12-07T14:11:49;0.50;99.90
37408;DHT22;24866;50.248;8.252;2023-12-07T14:14:19;0.50;99.90
37408;DHT22;24866;50.248;8.252;2023-12-07T14:16:51;0.50;99.90
37408;DHT22;24866;50.248;8.252;2023-12-07T14:19:22;0.60;99.90
37408;DHT22;24866;50.248;8.252;2023-12-07T14:21:54;0.50;99.90
37408;DHT22;24866;50.248;8.252;2023-12-07T14:24:25;0.50;99.90
37408;DHT22;24866;50.248;8.252;2023-12-07T14:26:56;0.30;99.90
37408;DHT22;24866;50.248;8.252;2023-12-07T14:29:26;0.30;99.90
37408;DHT22;24866;50.248;8.252;2023-12-07T14:31:59;0.30;99.90
37408;DHT22;24866;50.248;8.252;2023-12-07T14:34:29;0.30;99.90
37408;DHT22;24866;50.248;8.252;2023-12-07T14:36:59;0.30;99.90
37408;DHT22;24866;50.248;8.252;2023-12-07T14:39:31;0.30;99.90
37408;DHT22;24866;50.248;8.252;2023-12-07T14:42:02;0.30;99.90
37408;DHT22;24866;50.248;8.252;2023-12-07T14:44:33;0.20;99.90
37408;DHT22;24866;50.248;8.252;2023-12-07T14:47:05;0.30;99.90
37408;DHT22;24866;50.248;8.252;2023-12-07T14:49:35;0.20;99.90
37408;DHT22;24866;50.248;8.252;2023-12-07T14:52:06;0.20;99.90
37408;DHT22;24866;50.248;8.252;2023-12-07T14:54:36;0.30;99.90
37408;DHT22;24866;50.248;8.252;2023-12-07T14:57:06;0.40;99.90
37408;DHT22;24866;50.248;8.252;2023-12-07T14:59:37;0.40;99.90
37408;DHT22;24866;50.248;8.252;2023-12-07T15:02:10;0.60;99.90
37408;DHT22;24866;50.248;8.252;2023-12-07T15:04:40;0.60;99.90
37408;DHT22;24866;50.248;8.252;2023-12-07T15:07:10;0.60;99.90
37408;DHT22;24866;50.248;8.252;2023-12-07T15:09:40;0.60;99.90
37408;DHT22;24866;50.248;8.252;2023-12-07T15:12:11;0.60;99.90
37408;DHT22;24866;50.248;8.252;2023-12-07T15:14:41;0.70;99.90
37408;DHT22;24866;50.248;8.252;2023-12-07T15:17:14;0.70;99.90
37408;DHT22;24866;50.248;8.252;2023-12-07T15:19:44;0.90;99.90
37408;DHT22;24866;50.248;8.252;2023-12-07T15:22:15;0.70;99.90
37408;DHT22;24866;50.248;8.252;2023-12-07T15:24:45;0.80;99.90
37408;DHT22;24866;50.248;8.252;2023-12-07T15:27:15;0.80;99.90
37408;DHT22;24866;50.248;8.252;2023-12-07T15:29:46;0.80;99.90
37408;DHT22;24866;50.248;8.252;2023-12-07T15:32:18;0.80;99.90
37408;DHT22;24866;50.248;8.252;2023-12-07T15:34:48;0.80;99.90
37408;DHT22;24866;50.248;8.252;2023-12-07T15:37:19;0.80;99.90
37408;DHT22;24866;50.248;8.252;2023-12-07T15:39:49;0.90;99.90
37408;DHT22;24866;50.248;8.252;2023-12-07T15:42:19;0.90;99.90
37408;DHT22;24866;50.248;8.252;2023-12-07T15:44:49;1.00;99.90
37408;DHT22;24866;50.248;8.252;2023-12-07T15:47:21;1.00;99.90
37408;DHT22;24866;50.248;8.252;2023-12-07T15:49:51;1.10;99.90
37408;DHT22;24866;50.248;8.252;2023-12-07T15:52:22;1.20;99.90
37408;DHT22;24866;50.248;8.252;2023-12-07T15:54:52;1.20;99.90
37408;DHT22;24866;50.248;8.252;2023-12-07T15:57:23;1.20;99.90
37408;DHT22;24866;50.248;8.252;2023-12-07T15:59:53;1.20;99.90
37408;DHT22;24866;50.248;8.252;2023-12-07T16:02:25;1.30;99.90
37408;DHT22;24866;50.248;8.252;2023-12-07T16:04:55;1.20;99.90
37408;DHT22;24866;50.248;8.252;2023-12-07T16:07:26;1.20;99.90